createdAt,value
2023-04-02T00:00:13.684Z,6.92
2023-04-02T00:01:13.652Z,6.92
2023-04-02T00:02:13.725Z,6.92
2023-04-02T00:03:13.657Z,6.92
2023-04-02T00:04:13.642Z,6.93
2023-04-02T00:05:13.606Z,6.93
2023-04-02T00:06:13.596Z,6.93
2023-04-02T00:07:13.809Z,6.93
2023-04-02T00:08:13.576Z,6.92
2023-04-02T00:09:13.574Z,6.92
2023-04-02T00:10:13.565Z,6.92
2023-04-02T00:11:13.545Z,6.91
2023-04-02T00:12:13.517Z,6.91
2023-04-02T00:13:13.515Z,6.91
2023-04-02T00:14:13.498Z,6.90
2023-04-02T00:15:13.493Z,6.89
2023-04-02T00:16:13.543Z,6.89
2023-04-02T00:17:13.511Z,6.88
2023-04-02T00:18:13.531Z,6.87
2023-04-02T00:19:13.446Z,6.87
2023-04-02T00:20:13.456Z,6.86
2023-04-02T00:21:13.417Z,6.85
2023-04-02T00:22:13.395Z,6.85
2023-04-02T00:23:13.411Z,6.85
2023-04-02T00:24:13.369Z,6.84
2023-04-02T00:25:13.418Z,6.84
2023-04-02T00:26:13.360Z,6.84
2023-04-02T00:27:13.338Z,6.84
2023-04-02T00:28:13.331Z,6.84
2023-04-02T00:29:13.337Z,6.84
2023-04-02T00:30:13.322Z,6.84
2023-04-02T00:31:13.318Z,6.84
2023-04-02T00:32:13.340Z,6.84
2023-04-02T00:33:13.305Z,6.84
2023-04-02T00:34:13.244Z,6.84
2023-04-02T00:35:13.237Z,6.84
2023-04-02T00:36:13.280Z,6.84
2023-04-02T00:37:13.206Z,6.84
2023-04-02T00:38:13.191Z,6.83
2023-04-02T00:39:13.181Z,6.83
2023-04-02T00:40:13.162Z,6.82
2023-04-02T00:41:13.155Z,6.82
2023-04-02T00:42:13.160Z,6.81
2023-04-02T00:43:13.137Z,6.81
2023-04-02T00:44:13.118Z,6.80
2023-04-02T00:45:13.126Z,6.80
2023-04-02T00:46:13.131Z,6.80
2023-04-02T00:47:13.073Z,6.79
2023-04-02T00:48:13.073Z,6.79
2023-04-02T00:49:13.051Z,6.79
2023-04-02T00:50:13.038Z,6.78
2023-04-02T00:51:13.026Z,6.78
2023-04-02T00:52:13.010Z,6.77
2023-04-02T00:53:13.007Z,6.77
2023-04-02T00:54:12.994Z,6.77
2023-04-02T00:55:12.985Z,6.77
2023-04-02T00:56:12.965Z,6.77
2023-04-02T00:57:12.983Z,6.77
2023-04-02T00:58:12.946Z,6.77
2023-04-02T00:59:12.925Z,6.76
2023-04-02T01:00:12.924Z,6.76
2023-04-02T01:01:12.953Z,6.76
2023-04-02T01:02:12.910Z,6.76
2023-04-02T01:03:13.032Z,6.76
2023-04-02T01:04:12.898Z,6.76
2023-04-02T01:05:12.851Z,6.76
2023-04-02T01:06:12.837Z,6.76
2023-04-02T01:07:12.828Z,6.76
2023-04-02T01:08:12.813Z,6.76
2023-04-02T01:09:12.809Z,6.76
2023-04-02T01:10:12.799Z,6.76
2023-04-02T01:11:12.789Z,6.76
2023-04-02T01:12:12.757Z,6.76
2023-04-02T01:13:12.756Z,6.76
2023-04-02T01:14:12.756Z,6.75
2023-04-02T01:15:12.718Z,6.75
2023-04-02T01:16:12.765Z,6.75
2023-04-02T01:17:12.694Z,6.75
2023-04-02T01:18:12.682Z,6.74
2023-04-02T01:19:12.679Z,6.74
2023-04-02T01:20:12.646Z,6.74
2023-04-02T01:21:12.647Z,6.74
2023-04-02T01:22:12.638Z,6.73
2023-04-02T01:23:12.635Z,6.73
2023-04-02T01:24:12.628Z,6.73
2023-04-02T01:25:12.598Z,6.73
2023-04-02T01:26:12.596Z,6.72
2023-04-02T01:27:12.562Z,6.72
2023-04-02T01:28:12.596Z,6.71
2023-04-02T01:29:12.550Z,6.71
2023-04-02T01:30:12.533Z,6.70
2023-04-02T01:31:12.616Z,6.70
2023-04-02T01:32:12.498Z,6.69
2023-04-02T01:33:12.496Z,6.69
2023-04-02T01:34:12.503Z,6.69
2023-04-02T01:35:12.468Z,6.69
2023-04-02T01:36:12.480Z,6.69
2023-04-02T01:37:12.440Z,6.69
2023-04-02T01:38:12.417Z,6.68
2023-04-02T01:39:12.430Z,6.68
2023-04-02T01:40:12.424Z,6.68
2023-04-02T01:41:12.391Z,6.68
2023-04-02T01:42:12.379Z,6.68
2023-04-02T01:43:12.368Z,6.68
2023-04-02T01:44:12.367Z,6.68
2023-04-02T01:45:12.387Z,6.67
2023-04-02T01:46:12.394Z,6.67
2023-04-02T01:47:12.307Z,6.67
2023-04-02T01:48:12.311Z,6.67
2023-04-02T01:49:12.276Z,6.67
2023-04-02T01:50:12.289Z,6.67
2023-04-02T01:51:12.254Z,6.67
2023-04-02T01:52:12.255Z,6.67
2023-04-02T01:53:12.223Z,6.67
2023-04-02T01:54:12.232Z,6.67
2023-04-02T01:55:12.227Z,6.66
2023-04-02T01:56:12.201Z,6.66
2023-04-02T01:57:12.179Z,6.66
2023-04-02T01:58:12.195Z,6.66
2023-04-02T01:59:12.194Z,6.65
2023-04-02T02:00:12.144Z,6.65
2023-04-02T02:01:12.195Z,6.65
2023-04-02T02:02:12.163Z,6.65
2023-04-02T02:03:12.184Z,6.64
2023-04-02T02:04:12.098Z,6.64
2023-04-02T02:05:12.092Z,6.64
2023-04-02T02:06:12.062Z,6.65
2023-04-02T02:07:12.044Z,6.65
2023-04-02T02:08:12.039Z,6.65
2023-04-02T02:09:12.024Z,6.65
2023-04-02T02:10:12.014Z,6.65
2023-04-02T02:11:12.002Z,6.64
2023-04-02T02:12:11.985Z,6.64
2023-04-02T02:13:11.988Z,6.63
2023-04-02T02:14:12.008Z,6.63
2023-04-02T02:15:11.971Z,6.63
2023-04-02T02:16:12.001Z,6.63
2023-04-02T02:17:11.932Z,6.63
2023-04-02T02:18:11.913Z,6.62
2023-04-02T02:19:11.902Z,6.62
2023-04-02T02:20:11.917Z,6.63
2023-04-02T02:21:11.902Z,6.63
2023-04-02T02:22:11.866Z,6.63
2023-04-02T02:23:11.853Z,6.63
2023-04-02T02:24:11.834Z,6.64
2023-04-02T02:25:11.817Z,6.64
2023-04-02T02:26:11.862Z,6.65
2023-04-02T02:27:11.815Z,6.65
2023-04-02T02:28:11.794Z,6.65
2023-04-02T02:29:11.799Z,6.65
2023-04-02T02:30:11.778Z,6.65
2023-04-02T02:31:11.752Z,6.65
2023-04-02T02:32:11.859Z,6.65
2023-04-02T02:33:11.714Z,6.65
2023-04-02T02:34:11.710Z,6.65
2023-04-02T02:35:11.726Z,6.65
2023-04-02T02:36:11.732Z,6.65
2023-04-02T02:37:11.667Z,6.65
2023-04-02T02:38:11.673Z,6.65
2023-04-02T02:39:11.640Z,6.65
2023-04-02T02:40:11.645Z,6.65
2023-04-02T02:41:11.678Z,6.64
2023-04-02T02:42:11.636Z,6.64
2023-04-02T02:43:11.601Z,6.63
2023-04-02T02:44:11.586Z,6.63
2023-04-02T02:45:11.567Z,6.63
2023-04-02T02:46:11.622Z,6.62
2023-04-02T02:47:11.549Z,6.62
2023-04-02T02:48:11.536Z,6.62
2023-04-02T02:49:11.514Z,6.62
2023-04-02T02:50:11.513Z,6.62
2023-04-02T02:51:14.530Z,6.61
2023-04-02T02:52:11.498Z,6.61
2023-04-02T02:53:11.469Z,6.61
2023-04-02T02:54:11.466Z,6.61
2023-04-02T02:55:11.441Z,6.61
2023-04-02T02:56:11.426Z,6.62
2023-04-02T02:57:11.462Z,6.62
2023-04-02T02:58:11.408Z,6.62
2023-04-02T02:59:11.401Z,6.62
2023-04-02T03:00:11.384Z,6.62
2023-04-02T03:01:11.373Z,6.62
2023-04-02T03:02:11.394Z,6.62
2023-04-02T03:03:11.404Z,6.61
2023-04-02T03:04:11.403Z,6.61
2023-04-02T03:05:11.303Z,6.60
2023-04-02T03:06:11.321Z,6.60
2023-04-02T03:07:11.290Z,6.60
2023-04-02T03:08:11.270Z,6.59
2023-04-02T03:09:11.273Z,6.59
2023-04-02T03:10:11.244Z,6.58
2023-04-02T03:11:11.242Z,6.58
2023-04-02T03:12:11.238Z,6.58
2023-04-02T03:13:11.214Z,6.58
2023-04-02T03:14:11.195Z,6.58
2023-04-02T03:15:11.180Z,6.58
2023-04-02T03:16:11.235Z,6.57
2023-04-02T03:17:11.158Z,6.57
2023-04-02T03:18:11.144Z,6.57
2023-04-02T03:19:11.143Z,6.57
2023-04-02T03:20:11.117Z,6.57
2023-04-02T03:21:11.120Z,6.57
2023-04-02T03:22:11.110Z,6.57
2023-04-02T03:23:11.079Z,6.57
2023-04-02T03:24:11.073Z,6.57
2023-04-02T03:25:11.079Z,6.57
2023-04-02T03:26:18.168Z,6.56
2023-04-02T03:27:11.030Z,6.56
2023-04-02T03:28:11.073Z,6.56
2023-04-02T03:29:11.037Z,6.56
2023-04-02T03:30:10.995Z,6.56
2023-04-02T03:31:10.998Z,6.56
2023-04-02T03:32:10.992Z,6.56
2023-04-02T03:33:10.974Z,6.56
2023-04-02T03:34:10.956Z,6.56
2023-04-02T03:35:10.932Z,6.56
2023-04-02T03:36:10.958Z,6.56
2023-04-02T03:37:10.906Z,6.56
2023-04-02T03:38:10.934Z,6.55
2023-04-02T03:39:10.890Z,6.55
2023-04-02T03:40:10.867Z,6.54
2023-04-02T03:41:10.860Z,6.54
2023-04-02T03:42:10.866Z,6.53
2023-04-02T03:43:10.837Z,6.53
2023-04-02T03:44:10.840Z,6.53
2023-04-02T03:45:10.802Z,6.52
2023-04-02T03:46:10.808Z,6.52
2023-04-02T03:47:10.773Z,6.52
2023-04-02T03:48:10.775Z,6.52
2023-04-02T03:49:10.754Z,6.52
2023-04-02T03:50:10.758Z,6.52
2023-04-02T03:51:10.728Z,6.52
2023-04-02T03:52:10.731Z,6.52
2023-04-02T03:53:10.765Z,6.52
2023-04-02T03:54:10.691Z,6.52
2023-04-02T03:55:10.673Z,6.52
2023-04-02T03:56:10.671Z,6.52
2023-04-02T03:57:10.687Z,6.51
2023-04-02T03:58:10.684Z,6.51
2023-04-02T03:59:10.625Z,6.51
2023-04-02T04:00:10.673Z,6.50
2023-04-02T04:01:10.619Z,6.50
2023-04-02T04:02:10.660Z,6.49
2023-04-02T04:03:11.401Z,6.48
2023-04-02T04:04:10.673Z,6.47
2023-04-02T04:05:10.550Z,6.47
2023-04-02T04:06:10.538Z,6.47
2023-04-02T04:07:10.523Z,6.47
2023-04-02T04:08:10.528Z,6.47
2023-04-02T04:09:10.504Z,6.47
2023-04-02T04:10:10.495Z,6.47
2023-04-02T04:11:10.560Z,6.47
2023-04-02T04:12:10.454Z,6.47
2023-04-02T04:13:10.454Z,6.46
2023-04-02T04:14:10.466Z,6.46
2023-04-02T04:15:10.431Z,6.45
2023-04-02T04:16:10.497Z,6.45
2023-04-02T04:17:10.385Z,6.45
2023-04-02T04:18:10.404Z,6.45
2023-04-02T04:19:10.394Z,6.45
2023-04-02T04:20:10.353Z,6.45
2023-04-02T04:21:10.344Z,6.45
2023-04-02T04:22:10.342Z,6.45
2023-04-02T04:23:10.331Z,6.45
2023-04-02T04:24:10.308Z,6.45
2023-04-02T04:25:10.301Z,6.44
2023-04-02T04:26:10.272Z,6.44
2023-04-02T04:27:10.258Z,6.43
2023-04-02T04:28:10.257Z,6.42
2023-04-02T04:29:10.293Z,6.41
2023-04-02T04:30:10.236Z,6.40
2023-04-02T04:31:10.219Z,6.39
2023-04-02T04:32:10.265Z,6.39
2023-04-02T04:33:10.222Z,6.39
2023-04-02T04:34:10.186Z,6.38
2023-04-02T04:35:10.150Z,6.38
2023-04-02T04:36:10.166Z,6.38
2023-04-02T04:37:10.123Z,6.38
2023-04-02T04:38:10.115Z,6.37
2023-04-02T04:39:10.137Z,6.37
2023-04-02T04:40:10.088Z,6.37
2023-04-02T04:41:10.087Z,6.37
2023-04-02T04:42:10.099Z,6.36
2023-04-02T04:43:10.049Z,6.36
2023-04-02T04:44:10.062Z,6.36
2023-04-02T04:45:10.041Z,6.36
2023-04-02T04:46:10.093Z,6.36
2023-04-02T04:47:10.013Z,6.36
2023-04-02T04:48:10.004Z,6.35
2023-04-02T04:49:10.024Z,6.35
2023-04-02T04:50:09.960Z,6.34
2023-04-02T04:51:09.963Z,6.33
2023-04-02T04:52:09.978Z,6.32
2023-04-02T04:53:09.925Z,6.32
2023-04-02T04:54:09.946Z,6.31
2023-04-02T04:55:09.904Z,6.31
2023-04-02T04:56:18.928Z,6.31
2023-04-02T04:57:09.976Z,6.32
2023-04-02T04:58:09.860Z,6.32
2023-04-02T04:59:09.860Z,6.31
2023-04-02T05:00:09.833Z,6.31
2023-04-02T05:01:09.855Z,6.31
2023-04-02T05:02:09.810Z,6.31
2023-04-02T05:03:09.794Z,6.30
2023-04-02T05:04:09.841Z,6.30
2023-04-02T05:05:09.761Z,6.30
2023-04-02T05:06:09.761Z,6.29
2023-04-02T05:07:09.753Z,6.29
2023-04-02T05:08:09.781Z,6.29
2023-04-02T05:09:09.706Z,6.28
2023-04-02T05:10:09.707Z,6.29
2023-04-02T05:11:09.713Z,6.29
2023-04-02T05:12:09.679Z,6.29
2023-04-02T05:13:09.659Z,6.29
2023-04-02T05:14:09.653Z,6.29
2023-04-02T05:15:09.635Z,6.28
2023-04-02T05:16:09.676Z,6.27
2023-04-02T05:17:09.639Z,6.27
2023-04-02T05:18:09.645Z,6.28
2023-04-02T05:19:09.582Z,6.28
2023-04-02T05:20:09.593Z,6.28
2023-04-02T05:21:09.575Z,6.29
2023-04-02T05:22:09.561Z,6.29
2023-04-02T05:23:09.547Z,6.29
2023-04-02T05:24:09.523Z,6.29
2023-04-02T05:25:09.511Z,6.28
2023-04-02T05:26:09.513Z,6.28
2023-04-02T05:27:09.477Z,6.28
2023-04-02T05:28:09.478Z,6.28
2023-04-02T05:29:09.449Z,6.28
2023-04-02T05:30:09.457Z,6.28
2023-04-02T05:31:09.440Z,6.28
2023-04-02T05:32:09.429Z,6.28
2023-04-02T05:33:09.464Z,6.28
2023-04-02T05:34:09.385Z,6.27
2023-04-02T05:35:09.395Z,6.27
2023-04-02T05:36:09.551Z,6.26
2023-04-02T05:37:09.367Z,6.26
2023-04-02T05:38:09.338Z,6.25
2023-04-02T05:39:09.331Z,6.25
2023-04-02T05:40:09.328Z,6.25
2023-04-02T05:41:09.325Z,6.26
2023-04-02T05:42:09.315Z,6.26
2023-04-02T05:43:09.317Z,6.27
2023-04-02T05:44:09.286Z,6.27
2023-04-02T05:45:09.266Z,6.27
2023-04-02T05:46:09.278Z,6.26
2023-04-02T05:47:09.256Z,6.26
2023-04-02T05:48:09.213Z,6.26
2023-04-02T05:49:09.195Z,6.25
2023-04-02T05:50:09.185Z,6.25
2023-04-02T05:51:09.195Z,6.25
2023-04-02T05:52:09.161Z,6.25
2023-04-02T05:53:09.157Z,6.25
2023-04-02T05:54:09.137Z,6.25
2023-04-02T05:55:09.144Z,6.25
2023-04-02T05:56:09.120Z,6.24
2023-04-02T05:57:09.188Z,6.23
2023-04-02T05:58:33.844Z,6.24
2023-04-02T05:59:09.101Z,6.24
2023-04-02T06:00:09.075Z,6.24
2023-04-02T06:01:09.052Z,6.24
2023-04-02T06:02:09.085Z,6.24
2023-04-02T06:03:09.183Z,6.24
2023-04-02T06:04:09.101Z,6.24
2023-04-02T06:05:08.990Z,6.24
2023-04-02T06:06:08.992Z,6.23
2023-04-02T06:07:08.973Z,6.23
2023-04-02T06:08:08.952Z,6.23
2023-04-02T06:09:08.956Z,6.23
2023-04-02T06:10:08.933Z,6.23
2023-04-02T06:11:08.921Z,6.24
2023-04-02T06:12:08.944Z,6.24
2023-04-02T06:13:08.915Z,6.24
2023-04-02T06:14:08.867Z,6.25
2023-04-02T06:15:08.874Z,6.25
2023-04-02T06:16:08.862Z,6.25
2023-04-02T06:17:08.838Z,6.25
2023-04-02T06:18:08.890Z,6.25
2023-04-02T06:19:08.816Z,6.24
2023-04-02T06:20:08.803Z,6.23
2023-04-02T06:21:08.797Z,6.23
2023-04-02T06:22:08.795Z,6.23
2023-04-02T06:23:08.774Z,6.23
2023-04-02T06:24:08.759Z,6.23
2023-04-02T06:25:08.747Z,6.23
2023-04-02T06:26:08.732Z,6.23
2023-04-02T06:27:08.734Z,6.23
2023-04-02T06:28:08.692Z,6.23
2023-04-02T06:29:08.683Z,6.23
2023-04-02T06:30:08.685Z,6.24
2023-04-02T06:31:08.732Z,6.24
2023-04-02T06:32:08.673Z,6.25
2023-04-02T06:33:08.685Z,6.25
2023-04-02T06:34:08.637Z,6.26
2023-04-02T06:35:08.613Z,6.26
2023-04-02T06:36:08.615Z,6.26
2023-04-02T06:37:08.598Z,6.27
2023-04-02T06:38:08.578Z,6.27
2023-04-02T06:39:08.555Z,6.28
2023-04-02T06:40:08.543Z,6.28
2023-04-02T06:41:08.553Z,6.29
2023-04-02T06:42:08.532Z,6.29
2023-04-02T06:43:08.522Z,6.29
2023-04-02T06:44:08.495Z,6.29
2023-04-02T06:45:08.495Z,6.29
2023-04-02T06:46:08.581Z,6.29
2023-04-02T06:47:08.480Z,6.29
2023-04-02T06:48:08.452Z,6.30
2023-04-02T06:49:08.429Z,6.30
2023-04-02T06:50:08.423Z,6.31
2023-04-02T06:51:08.407Z,6.31
2023-04-02T06:52:08.421Z,6.31
2023-04-02T06:53:08.378Z,6.31
2023-04-02T06:54:08.363Z,6.32
2023-04-02T06:55:08.942Z,6.32
2023-04-02T06:56:08.369Z,6.32
2023-04-02T06:57:08.403Z,6.33
2023-04-02T06:58:08.341Z,6.34
2023-04-02T06:59:08.305Z,6.35
2023-04-02T07:00:08.282Z,6.35
2023-04-02T07:01:08.343Z,6.36
2023-04-02T07:02:08.268Z,6.36
2023-04-02T07:03:08.297Z,6.37
2023-04-02T07:04:08.250Z,6.37
2023-04-02T07:05:08.391Z,6.37
2023-04-02T07:06:08.214Z,6.37
2023-04-02T07:07:08.193Z,6.37
2023-04-02T07:08:08.203Z,6.37
2023-04-02T07:09:08.167Z,6.38
2023-04-02T07:10:08.158Z,6.39
2023-04-02T07:11:08.169Z,6.40
2023-04-02T07:12:08.142Z,6.41
2023-04-02T07:13:08.133Z,6.42
2023-04-02T07:14:08.108Z,6.44
2023-04-02T07:15:08.104Z,6.45
2023-04-02T07:16:08.094Z,6.46
2023-04-02T07:17:08.083Z,6.47
2023-04-02T07:18:08.090Z,6.47
2023-04-02T07:19:08.050Z,6.47
2023-04-02T07:20:08.022Z,6.48
2023-04-02T07:21:08.040Z,6.48
2023-04-02T07:22:08.000Z,6.49
2023-04-02T07:23:08.008Z,6.49
2023-04-02T07:24:07.981Z,6.50
2023-04-02T07:25:07.979Z,6.51
2023-04-02T07:26:07.963Z,6.52
2023-04-02T07:27:07.953Z,6.53
2023-04-02T07:28:07.940Z,6.54
2023-04-02T07:29:07.935Z,6.55
2023-04-02T07:30:07.897Z,6.56
2023-04-02T07:31:07.933Z,6.57
2023-04-02T07:32:07.885Z,6.58
2023-04-02T07:33:07.920Z,6.60
2023-04-02T07:34:07.861Z,6.62
2023-04-02T07:35:07.854Z,6.63
2023-04-02T07:36:07.880Z,6.64
2023-04-02T07:37:07.817Z,6.66
2023-04-02T07:38:07.815Z,6.67
2023-04-02T07:39:07.795Z,6.68
2023-04-02T07:40:07.774Z,6.69
2023-04-02T07:41:07.767Z,6.69
2023-04-02T07:42:07.751Z,6.70
2023-04-02T07:43:07.730Z,6.71
2023-04-02T07:44:07.739Z,6.72
2023-04-02T07:45:07.712Z,6.74
2023-04-02T07:46:07.694Z,6.75
2023-04-02T07:47:07.746Z,6.77
2023-04-02T07:48:07.770Z,6.79
2023-04-02T07:49:07.661Z,6.82
2023-04-02T07:50:07.642Z,6.83
2023-04-02T07:51:07.632Z,6.85
2023-04-02T07:52:07.638Z,6.87
2023-04-02T07:53:07.607Z,6.89
2023-04-02T07:54:07.605Z,6.91
2023-04-02T07:55:07.592Z,6.93
2023-04-02T07:56:07.576Z,6.93
2023-04-02T07:57:07.569Z,6.94
2023-04-02T07:58:07.555Z,6.95
2023-04-02T07:59:07.539Z,6.96
2023-04-02T08:00:07.534Z,6.96
2023-04-02T08:01:07.514Z,6.97
2023-04-02T08:02:07.543Z,6.97
2023-04-02T08:03:07.585Z,6.98
2023-04-02T08:04:07.524Z,6.99
2023-04-02T08:05:07.500Z,6.99
2023-04-02T08:06:08.205Z,7.00
2023-04-02T08:07:07.452Z,7.01
2023-04-02T08:08:07.412Z,7.02
2023-04-02T08:09:07.434Z,7.03
2023-04-02T08:10:07.789Z,7.05
2023-04-02T08:11:07.409Z,7.06
2023-04-02T08:12:07.368Z,7.08
2023-04-02T08:13:07.396Z,7.09
2023-04-02T08:14:07.342Z,7.10
2023-04-02T08:15:07.350Z,7.11
2023-04-02T08:16:07.355Z,7.12
2023-04-02T08:17:07.314Z,7.14
2023-04-02T08:18:07.333Z,7.15
2023-04-02T08:19:08.878Z,7.16
2023-04-02T08:20:07.289Z,7.18
2023-04-02T08:21:07.257Z,7.19
2023-04-02T08:22:07.252Z,7.20
2023-04-02T08:23:07.235Z,7.22
2023-04-02T08:24:07.222Z,7.23
2023-04-02T08:25:07.203Z,7.24
2023-04-02T08:26:07.189Z,7.25
2023-04-02T08:27:07.178Z,7.27
2023-04-02T08:28:07.164Z,7.29
2023-04-02T08:29:07.188Z,7.31
2023-04-02T08:30:07.155Z,7.33
2023-04-02T08:31:07.154Z,7.34
2023-04-02T08:32:07.124Z,7.36
2023-04-02T08:33:07.164Z,7.38
2023-04-02T08:34:07.080Z,7.39
2023-04-02T08:35:07.126Z,7.41
2023-04-02T08:36:07.106Z,7.42
2023-04-02T08:37:07.050Z,7.44
2023-04-02T08:38:07.040Z,7.46
2023-04-02T08:39:07.031Z,7.47
2023-04-02T08:40:07.029Z,7.49
2023-04-02T08:41:07.005Z,7.50
2023-04-02T08:42:07.054Z,7.51
2023-04-02T08:43:06.973Z,7.52
2023-04-02T08:44:06.957Z,7.53
2023-04-02T08:45:22.981Z,7.54
2023-04-02T08:46:06.957Z,7.55
2023-04-02T08:47:06.938Z,7.55
2023-04-02T08:48:06.963Z,7.56
2023-04-02T08:49:06.898Z,7.56
2023-04-02T08:50:06.898Z,7.57
2023-04-02T08:51:06.866Z,7.58
2023-04-02T08:52:06.850Z,7.60
2023-04-02T08:53:06.854Z,7.61
2023-04-02T08:54:06.892Z,7.62
2023-04-02T08:55:06.830Z,7.64
2023-04-02T08:56:06.803Z,7.65
2023-04-02T08:57:06.855Z,7.67
2023-04-02T08:58:06.776Z,7.68
2023-04-02T08:59:06.797Z,7.69
2023-04-02T09:00:06.757Z,7.70
2023-04-02T09:01:06.737Z,7.70
2023-04-02T09:02:06.719Z,7.71
2023-04-02T09:03:06.780Z,7.73
2023-04-02T09:04:06.701Z,7.74
2023-04-02T09:05:06.797Z,7.75
2023-04-02T09:06:06.675Z,7.76
2023-04-02T09:07:06.675Z,7.77
2023-04-02T09:08:06.650Z,7.77
2023-04-02T09:09:06.639Z,7.78
2023-04-02T09:10:06.640Z,7.79
2023-04-02T09:11:06.617Z,7.79
2023-04-02T09:12:06.599Z,7.79
2023-04-02T09:13:06.598Z,7.79
2023-04-02T09:14:06.597Z,7.79
2023-04-02T09:15:06.572Z,7.80
2023-04-02T09:16:06.632Z,7.81
2023-04-02T09:17:06.539Z,7.82
2023-04-02T09:18:06.548Z,7.82
2023-04-02T09:19:06.514Z,7.83
2023-04-02T09:20:06.505Z,7.84
2023-04-02T09:21:06.484Z,7.85
2023-04-02T09:22:06.499Z,7.86
2023-04-02T09:23:06.456Z,7.88
2023-04-02T09:24:06.443Z,7.90
2023-04-02T09:25:06.462Z,7.91
2023-04-02T09:26:06.432Z,7.92
2023-04-02T09:27:06.436Z,7.94
2023-04-02T09:28:06.403Z,7.95
2023-04-02T09:29:06.384Z,7.97
2023-04-02T09:30:06.411Z,7.98
2023-04-02T09:31:07.347Z,8.00
2023-04-02T09:32:06.371Z,8.01
2023-04-02T09:33:06.510Z,8.02
2023-04-02T09:34:06.386Z,8.02
2023-04-02T09:35:14.980Z,8.03
2023-04-02T09:36:06.351Z,8.03
2023-04-02T09:37:06.311Z,8.04
2023-04-02T09:38:06.271Z,8.05
2023-04-02T09:39:06.341Z,8.07
2023-04-02T09:40:06.247Z,8.08
2023-04-02T09:41:06.252Z,8.10
2023-04-02T09:42:06.224Z,8.12
2023-04-02T09:43:06.214Z,8.13
2023-04-02T09:44:06.198Z,8.14
2023-04-02T09:45:06.186Z,8.16
2023-04-02T09:46:06.177Z,8.17
2023-04-02T09:47:06.254Z,8.18
2023-04-02T09:48:06.184Z,8.20
2023-04-02T09:49:06.146Z,8.21
2023-04-02T09:50:06.125Z,8.21
2023-04-02T09:51:06.118Z,8.22
2023-04-02T09:52:06.094Z,8.23
2023-04-02T09:53:06.081Z,8.24
2023-04-02T09:54:06.094Z,8.26
2023-04-02T09:55:06.059Z,8.27
2023-04-02T09:56:06.070Z,8.29
2023-04-02T09:57:06.066Z,8.32
2023-04-02T09:58:06.030Z,8.34
2023-04-02T09:59:06.044Z,8.36
2023-04-02T10:00:06.008Z,8.38
2023-04-02T10:01:06.016Z,8.40
2023-04-02T10:02:05.970Z,8.41
2023-04-02T10:03:05.959Z,8.43
2023-04-02T10:04:06.011Z,8.44
2023-04-02T10:05:05.917Z,8.46
2023-04-02T10:06:05.950Z,8.46
2023-04-02T10:07:05.930Z,8.47
2023-04-02T10:08:05.879Z,8.47
2023-04-02T10:09:05.870Z,8.47
2023-04-02T10:10:05.874Z,8.48
2023-04-02T10:11:05.846Z,8.48
2023-04-02T10:12:06.157Z,8.49
2023-04-02T10:13:05.833Z,8.49
2023-04-02T10:14:05.822Z,8.50
2023-04-02T10:15:05.791Z,8.50
2023-04-02T10:16:05.859Z,8.51
2023-04-02T10:17:05.826Z,8.51
2023-04-02T10:18:05.841Z,8.52
2023-04-02T10:19:05.743Z,8.52
2023-04-02T10:20:05.741Z,8.53
2023-04-02T10:21:05.731Z,8.54
2023-04-02T10:22:05.755Z,8.54
2023-04-02T10:23:06.571Z,8.55
2023-04-02T10:24:05.686Z,8.55
2023-04-02T10:25:05.659Z,8.55
2023-04-02T10:26:05.662Z,8.55
2023-04-02T10:27:05.657Z,8.56
2023-04-02T10:28:05.628Z,8.56
2023-04-02T10:29:06.973Z,8.56
2023-04-02T10:30:05.629Z,8.57
2023-04-02T10:31:05.603Z,8.57
2023-04-02T10:32:05.625Z,8.57
2023-04-02T10:33:05.678Z,8.58
2023-04-02T10:34:05.561Z,8.58
2023-04-02T10:35:05.559Z,8.59
2023-04-02T10:36:05.580Z,8.60
2023-04-02T10:37:05.558Z,8.60
2023-04-02T10:38:05.516Z,8.61
2023-04-02T10:39:05.510Z,8.62
2023-04-02T10:40:05.484Z,8.62
2023-04-02T10:41:05.461Z,8.63
2023-04-02T10:42:05.454Z,8.64
2023-04-02T10:43:05.454Z,8.65
2023-04-02T10:44:13.150Z,8.66
2023-04-02T10:45:05.424Z,8.67
2023-04-02T10:46:05.452Z,8.68
2023-04-02T10:47:05.439Z,8.68
2023-04-02T10:48:05.422Z,8.70
2023-04-02T10:49:05.407Z,8.71
2023-04-02T10:50:05.367Z,8.73
2023-04-02T10:51:05.385Z,8.76
2023-04-02T10:52:05.345Z,8.78
2023-04-02T10:53:05.325Z,8.80
2023-04-02T10:54:05.311Z,8.83
2023-04-02T10:55:05.331Z,8.85
2023-04-02T10:56:05.287Z,8.87
2023-04-02T10:57:05.294Z,8.89
2023-04-02T10:58:05.274Z,8.91
2023-04-02T10:59:05.244Z,8.94
2023-04-02T11:00:05.252Z,8.96
2023-04-02T11:01:05.233Z,8.99
2023-04-02T11:02:05.207Z,9.02
2023-04-02T11:03:05.252Z,9.05
2023-04-02T11:04:05.187Z,9.09
2023-04-02T11:05:05.184Z,9.13
2023-04-02T11:06:05.160Z,9.16
2023-04-02T11:07:13.665Z,9.20
2023-04-02T11:08:05.130Z,9.24
2023-04-02T11:09:05.138Z,9.28
2023-04-02T11:10:05.116Z,9.33
2023-04-02T11:11:05.097Z,9.37
2023-04-02T11:12:05.175Z,9.41
2023-04-02T11:13:05.080Z,9.44
2023-04-02T11:14:05.080Z,9.46
2023-04-02T11:15:05.048Z,9.48
2023-04-02T11:16:05.082Z,9.49
2023-04-02T11:17:05.036Z,9.50
2023-04-02T11:18:05.028Z,9.51
2023-04-02T11:19:05.012Z,9.52
2023-04-02T11:20:04.999Z,9.52
2023-04-02T11:21:04.991Z,9.52
2023-04-02T11:22:06.682Z,9.52
2023-04-02T11:23:04.957Z,9.52
2023-04-02T11:24:04.955Z,9.52
2023-04-02T11:25:04.930Z,9.51
2023-04-02T11:26:04.919Z,9.50
2023-04-02T11:27:04.916Z,9.48
2023-04-02T11:28:04.907Z,9.47
2023-04-02T11:29:04.894Z,9.45
2023-04-02T11:30:04.886Z,9.44
2023-04-02T11:31:04.851Z,9.43
2023-04-02T11:32:04.852Z,9.42
2023-04-02T11:33:04.875Z,9.41
2023-04-02T11:34:04.835Z,9.39
2023-04-02T11:35:06.996Z,9.38
2023-04-02T11:36:04.817Z,9.37
2023-04-02T11:37:04.785Z,9.35
2023-04-02T11:38:04.773Z,9.34
2023-04-02T11:39:16.503Z,9.32
2023-04-02T11:40:04.765Z,9.32
2023-04-02T11:41:04.738Z,9.32
2023-04-02T11:42:04.726Z,9.33
2023-04-02T11:43:04.701Z,9.34
2023-04-02T11:44:04.700Z,9.36
2023-04-02T11:45:04.691Z,9.39
2023-04-02T11:46:04.687Z,9.43
2023-04-02T11:47:04.654Z,9.47
2023-04-02T11:48:04.683Z,9.52
2023-04-02T11:49:04.633Z,9.56
2023-04-02T11:50:04.652Z,9.60
2023-04-02T11:51:04.627Z,9.63
2023-04-02T11:52:11.951Z,9.65
2023-04-02T11:53:04.592Z,9.65
2023-04-02T11:54:04.584Z,9.65
2023-04-02T11:55:04.570Z,9.65
2023-04-02T11:56:04.573Z,9.64
2023-04-02T11:57:04.575Z,9.63
2023-04-02T11:58:04.550Z,9.62
2023-04-02T11:59:04.518Z,9.61
2023-04-02T12:00:04.518Z,9.61
2023-04-02T12:01:04.492Z,9.61
2023-04-02T12:02:04.507Z,9.60
2023-04-02T12:03:04.543Z,9.60
2023-04-02T12:04:04.474Z,9.59
2023-04-02T12:05:04.626Z,9.58
2023-04-02T12:06:04.534Z,9.57
2023-04-02T12:07:04.417Z,9.56
2023-04-02T12:08:04.403Z,9.55
2023-04-02T12:09:04.414Z,9.53
2023-04-02T12:10:04.394Z,9.52
2023-04-02T12:11:04.366Z,9.52
2023-04-02T12:12:04.372Z,9.51
2023-04-02T12:13:04.342Z,9.50
2023-04-02T12:14:04.326Z,9.50
2023-04-02T12:15:04.332Z,9.49
2023-04-02T12:16:04.319Z,9.49
2023-04-02T12:17:05.380Z,9.48
2023-04-02T12:18:04.326Z,9.48
2023-04-02T12:19:04.279Z,9.47
2023-04-02T12:20:05.760Z,9.47
2023-04-02T12:21:04.240Z,9.47
2023-04-02T12:22:04.219Z,9.47
2023-04-02T12:23:04.210Z,9.48
2023-04-02T12:24:04.213Z,9.49
2023-04-02T12:25:04.198Z,9.51
2023-04-02T12:26:04.199Z,9.52
2023-04-02T12:27:04.181Z,9.54
2023-04-02T12:28:04.149Z,9.56
2023-04-02T12:29:04.190Z,9.58
2023-04-02T12:30:04.135Z,9.61
2023-04-02T12:31:04.216Z,9.64
2023-04-02T12:32:04.141Z,9.67
2023-04-02T12:33:04.126Z,9.70
2023-04-02T12:34:04.077Z,9.73
2023-04-02T12:35:04.072Z,9.76
2023-04-02T12:36:04.099Z,9.79
2023-04-02T12:37:04.059Z,9.81
2023-04-02T12:38:04.028Z,9.83
2023-04-02T12:39:04.018Z,9.85
2023-04-02T12:40:04.035Z,9.86
2023-04-02T12:41:03.996Z,9.86
2023-04-02T12:42:04.008Z,9.86
2023-04-02T12:43:03.980Z,9.85
2023-04-02T12:44:03.969Z,9.84
2023-04-02T12:45:03.932Z,9.82
2023-04-02T12:46:03.976Z,9.80
2023-04-02T12:47:03.930Z,9.78
2023-04-02T12:48:03.926Z,9.75
2023-04-02T12:49:03.906Z,9.72
2023-04-02T12:50:03.889Z,9.70
2023-04-02T12:51:03.907Z,9.67
2023-04-02T12:52:03.886Z,9.65
2023-04-02T12:53:03.852Z,9.62
2023-04-02T12:54:03.838Z,9.60
2023-04-02T12:55:03.825Z,9.59
2023-04-02T12:56:03.819Z,9.58
2023-04-02T12:57:03.822Z,9.57
2023-04-02T12:58:03.785Z,9.56
2023-04-02T12:59:03.800Z,9.56
2023-04-02T13:00:03.766Z,9.56
2023-04-02T13:01:03.749Z,9.56
2023-04-02T13:02:03.843Z,9.57
2023-04-02T13:03:03.787Z,9.58
2023-04-02T13:04:03.832Z,9.60
2023-04-02T13:05:03.721Z,9.62
2023-04-02T13:06:03.679Z,9.64
2023-04-02T13:07:03.727Z,9.65
2023-04-02T13:08:03.699Z,9.68
2023-04-02T13:09:03.672Z,9.70
2023-04-02T13:10:03.657Z,9.70
2023-04-02T13:11:03.629Z,9.70
2023-04-02T13:12:03.627Z,9.69
2023-04-02T13:13:03.595Z,9.67
2023-04-02T13:14:03.623Z,9.64
2023-04-02T13:15:03.570Z,9.60
2023-04-02T13:16:03.712Z,9.57
2023-04-02T13:17:03.575Z,9.54
2023-04-02T13:18:03.595Z,9.51